sensor_id;sensor_type;location;lat;lon;timestamp;P1;durP1;ratioP1;P2;durP2;ratioP2
19812;SDS011;10066;48.108;11.448;2023-02-01T00:00:00;3.80;;;2.60;;
19812;SDS011;10066;48.108;11.448;2023-02-01T00:02:28;4.13;;;2.00;;
19812;SDS011;10066;48.108;11.448;2023-02-01T00:04:55;3.97;;;2.33;;
19812;SDS011;10066;48.108;11.448;2023-02-01T00:07:22;3.90;;;2.10;;
19812;SDS011;10066;48.108;11.448;2023-02-01T00:09:48;4.57;;;2.80;;
19812;SDS011;10066;48.108;11.448;2023-02-01T00:12:15;4.73;;;2.40;;
19812;SDS011;10066;48.108;11.448;2023-02-01T00:14:42;4.47;;;2.40;;
19812;SDS011;10066;48.108;11.448;2023-02-01T00:17:09;3.13;;;2.00;;
19812;SDS011;10066;48.108;11.448;2023-02-01T00:19:37;4.10;;;2.50;;
19812;SDS011;10066;48.108;11.448;2023-02-01T00:22:04;3.53;;;2.10;;
19812;SDS011;10066;48.108;11.448;2023-02-01T00:24:31;4.17;;;2.43;;
19812;SDS011;10066;48.108;11.448;2023-02-01T00:26:58;3.33;;;2.30;;
19812;SDS011;10066;48.108;11.448;2023-02-01T00:29:25;4.17;;;1.80;;
19812;SDS011;10066;48.108;11.448;2023-02-01T00:31:52;3.47;;;1.97;;
19812;SDS011;10066;48.108;11.448;2023-02-01T00:34:19;3.83;;;1.87;;
19812;SDS011;10066;48.108;11.448;2023-02-01T00:36:48;2.20;;;1.60;;
19812;SDS011;10066;48.108;11.448;2023-02-01T00:39:15;2.30;;;1.80;;
19812;SDS011;10066;48.108;11.448;2023-02-01T00:41:42;2.83;;;1.50;;
19812;SDS011;10066;48.108;11.448;2023-02-01T00:44:09;4.07;;;2.03;;
19812;SDS011;10066;48.108;11.448;2023-02-01T00:46:36;3.93;;;2.07;;
19812;SDS011;10066;48.108;11.448;2023-02-01T00:49:03;4.30;;;2.33;;
19812;SDS011;10066;48.108;11.448;2023-02-01T00:51:32;2.10;;;1.60;;
19812;SDS011;10066;48.108;11.448;2023-02-01T00:54:00;3.87;;;1.90;;
19812;SDS011;10066;48.108;11.448;2023-02-01T00:56:28;4.67;;;2.20;;
19812;SDS011;10066;48.108;11.448;2023-02-01T00:58:55;4.07;;;2.60;;
19812;SDS011;10066;48.108;11.448;2023-02-01T01:01:23;3.80;;;2.40;;
19812;SDS011;10066;48.108;11.448;2023-02-01T01:03:51;5.37;;;2.87;;
19812;SDS011;10066;48.108;11.448;2023-02-01T01:06:21;4.43;;;2.40;;
19812;SDS011;10066;48.108;11.448;2023-02-01T01:08:50;5.40;;;2.20;;
19812;SDS011;10066;48.108;11.448;2023-02-01T01:11:20;4.97;;;2.50;;
19812;SDS011;10066;48.108;11.448;2023-02-01T01:13:49;3.63;;;2.60;;
19812;SDS011;10066;48.108;11.448;2023-02-01T01:16:17;5.17;;;3.03;;
19812;SDS011;10066;48.108;11.448;2023-02-01T01:18:45;5.33;;;2.83;;
19812;SDS011;10066;48.108;11.448;2023-02-01T01:21:13;3.80;;;2.63;;
19812;SDS011;10066;48.108;11.448;2023-02-01T01:23:40;3.77;;;2.73;;
19812;SDS011;10066;48.108;11.448;2023-02-01T01:26:08;3.70;;;2.67;;
19812;SDS011;10066;48.108;11.448;2023-02-01T01:28:37;5.43;;;3.20;;
19812;SDS011;10066;48.108;11.448;2023-02-01T01:31:07;5.17;;;3.23;;
19812;SDS011;10066;48.108;11.448;2023-02-01T01:33:34;4.63;;;3.20;;
19812;SDS011;10066;48.108;11.448;2023-02-01T01:36:01;4.60;;;2.90;;
19812;SDS011;10066;48.108;11.448;2023-02-01T01:38:28;5.27;;;3.27;;
19812;SDS011;10066;48.108;11.448;2023-02-01T01:40:55;3.83;;;2.90;;
19812;SDS011;10066;48.108;11.448;2023-02-01T01:43:22;4.23;;;2.97;;
19812;SDS011;10066;48.108;11.448;2023-02-01T01:45:50;3.57;;;3.10;;
19812;SDS011;10066;48.108;11.448;2023-02-01T01:48:18;6.83;;;3.20;;
19812;SDS011;10066;48.108;11.448;2023-02-01T01:50:50;6.67;;;3.53;;
19812;SDS011;10066;48.108;11.448;2023-02-01T01:53:22;6.37;;;3.53;;
19812;SDS011;10066;48.108;11.448;2023-02-01T01:55:52;5.13;;;3.70;;
19812;SDS011;10066;48.108;11.448;2023-02-01T01:58:23;4.83;;;3.23;;
19812;SDS011;10066;48.108;11.448;2023-02-01T02:00:53;5.20;;;3.63;;
19812;SDS011;10066;48.108;11.448;2023-02-01T02:03:21;4.47;;;3.67;;
19812;SDS011;10066;48.108;11.448;2023-02-01T02:05:50;4.90;;;3.50;;
19812;SDS011;10066;48.108;11.448;2023-02-01T02:08:20;6.03;;;4.20;;
19812;SDS011;10066;48.108;11.448;2023-02-01T02:10:50;5.97;;;3.83;;
19812;SDS011;10066;48.108;11.448;2023-02-01T02:13:26;5.33;;;3.97;;
19812;SDS011;10066;48.108;11.448;2023-02-01T02:16:00;5.97;;;3.80;;
19812;SDS011;10066;48.108;11.448;2023-02-01T02:18:39;6.07;;;4.20;;
19812;SDS011;10066;48.108;11.448;2023-02-01T02:21:17;6.20;;;4.10;;
19812;SDS011;10066;48.108;11.448;2023-02-01T02:24:19;5.77;;;4.03;;
19812;SDS011;10066;48.108;11.448;2023-02-01T02:27:22;4.70;;;3.30;;
19812;SDS011;10066;48.108;11.448;2023-02-01T02:36:07;5.00;;;3.37;;
19812;SDS011;10066;48.108;11.448;2023-02-01T02:38:44;5.33;;;3.83;;
19812;SDS011;10066;48.108;11.448;2023-02-01T02:41:15;4.03;;;3.10;;
19812;SDS011;10066;48.108;11.448;2023-02-01T02:44:00;6.57;;;3.43;;
19812;SDS011;10066;48.108;11.448;2023-02-01T02:46:53;5.87;;;3.60;;
19812;SDS011;10066;48.108;11.448;2023-02-01T02:49:44;3.47;;;2.60;;
19812;SDS011;10066;48.108;11.448;2023-02-01T02:52:38;5.60;;;3.83;;
19812;SDS011;10066;48.108;11.448;2023-02-01T02:55:30;6.10;;;3.70;;
19812;SDS011;10066;48.108;11.448;2023-02-01T02:58:00;5.60;;;3.90;;
19812;SDS011;10066;48.108;11.448;2023-02-01T03:00:47;5.00;;;3.50;;
19812;SDS011;10066;48.108;11.448;2023-02-01T03:03:35;5.77;;;3.83;;
19812;SDS011;10066;48.108;11.448;2023-02-01T03:06:22;5.23;;;3.93;;
19812;SDS011;10066;48.108;11.448;2023-02-01T03:08:51;6.67;;;3.60;;
19812;SDS011;10066;48.108;11.448;2023-02-01T03:11:21;4.73;;;3.13;;
19812;SDS011;10066;48.108;11.448;2023-02-01T03:14:10;5.40;;;3.80;;
19812;SDS011;10066;48.108;11.448;2023-02-01T03:16:40;6.67;;;3.90;;
19812;SDS011;10066;48.108;11.448;2023-02-01T03:19:11;5.23;;;3.37;;
19812;SDS011;10066;48.108;11.448;2023-02-01T03:21:44;7.13;;;3.53;;
19812;SDS011;10066;48.108;11.448;2023-02-01T03:24:16;6.20;;;3.10;;
19812;SDS011;10066;48.108;11.448;2023-02-01T03:26:58;5.23;;;3.20;;
19812;SDS011;10066;48.108;11.448;2023-02-01T03:29:33;5.53;;;3.40;;
19812;SDS011;10066;48.108;11.448;2023-02-01T03:32:04;5.57;;;3.03;;
19812;SDS011;10066;48.108;11.448;2023-02-01T03:34:31;4.90;;;3.10;;
19812;SDS011;10066;48.108;11.448;2023-02-01T03:36:59;4.23;;;2.87;;
19812;SDS011;10066;48.108;11.448;2023-02-01T03:39:36;6.33;;;3.40;;
19812;SDS011;10066;48.108;11.448;2023-02-01T03:42:08;3.90;;;2.83;;
19812;SDS011;10066;48.108;11.448;2023-02-01T03:44:41;4.00;;;2.43;;
19812;SDS011;10066;48.108;11.448;2023-02-01T03:47:13;4.43;;;2.97;;
19812;SDS011;10066;48.108;11.448;2023-02-01T03:49:45;5.20;;;3.13;;
19812;SDS011;10066;48.108;11.448;2023-02-01T03:52:16;5.07;;;3.40;;
19812;SDS011;10066;48.108;11.448;2023-02-01T03:54:49;5.20;;;3.10;;
19812;SDS011;10066;48.108;11.448;2023-02-01T03:57:19;5.13;;;3.17;;
19812;SDS011;10066;48.108;11.448;2023-02-01T03:59:51;3.67;;;3.00;;
19812;SDS011;10066;48.108;11.448;2023-02-01T04:02:18;4.47;;;3.20;;
19812;SDS011;10066;48.108;11.448;2023-02-01T04:04:45;4.67;;;2.80;;
19812;SDS011;10066;48.108;11.448;2023-02-01T04:07:12;6.07;;;3.17;;
19812;SDS011;10066;48.108;11.448;2023-02-01T04:09:39;4.93;;;3.30;;
19812;SDS011;10066;48.108;11.448;2023-02-01T04:12:07;5.00;;;2.80;;
19812;SDS011;10066;48.108;11.448;2023-02-01T04:14:34;5.57;;;2.70;;
19812;SDS011;10066;48.108;11.448;2023-02-01T04:17:11;3.40;;;2.50;;
19812;SDS011;10066;48.108;11.448;2023-02-01T04:19:38;3.03;;;2.73;;
19812;SDS011;10066;48.108;11.448;2023-02-01T04:22:05;4.30;;;3.00;;
19812;SDS011;10066;48.108;11.448;2023-02-01T04:24:33;4.53;;;2.90;;
19812;SDS011;10066;48.108;11.448;2023-02-01T04:27:01;3.97;;;2.93;;
19812;SDS011;10066;48.108;11.448;2023-02-01T04:29:31;3.90;;;2.80;;
19812;SDS011;10066;48.108;11.448;2023-02-01T04:31:57;4.07;;;2.70;;
19812;SDS011;10066;48.108;11.448;2023-02-01T04:34:24;6.13;;;3.40;;
19812;SDS011;10066;48.108;11.448;2023-02-01T04:36:51;3.97;;;2.90;;
19812;SDS011;10066;48.108;11.448;2023-02-01T04:39:18;5.00;;;2.90;;
19812;SDS011;10066;48.108;11.448;2023-02-01T04:41:46;4.77;;;2.90;;
19812;SDS011;10066;48.108;11.448;2023-02-01T04:44:13;4.93;;;3.30;;
19812;SDS011;10066;48.108;11.448;2023-02-01T04:46:43;4.50;;;2.70;;
19812;SDS011;10066;48.108;11.448;2023-02-01T04:49:11;4.40;;;2.77;;
19812;SDS011;10066;48.108;11.448;2023-02-01T04:51:39;5.23;;;3.20;;
19812;SDS011;10066;48.108;11.448;2023-02-01T04:54:06;3.57;;;2.97;;
19812;SDS011;10066;48.108;11.448;2023-02-01T04:56:33;4.77;;;3.00;;
19812;SDS011;10066;48.108;11.448;2023-02-01T04:59:00;4.00;;;3.17;;
19812;SDS011;10066;48.108;11.448;2023-02-01T05:01:28;6.70;;;3.00;;
19812;SDS011;10066;48.108;11.448;2023-02-01T05:03:57;5.63;;;3.10;;
19812;SDS011;10066;48.108;11.448;2023-02-01T05:06:24;4.67;;;2.90;;
19812;SDS011;10066;48.108;11.448;2023-02-01T05:08:50;4.60;;;3.47;;
19812;SDS011;10066;48.108;11.448;2023-02-01T05:11:17;5.10;;;3.43;;
19812;SDS011;10066;48.108;11.448;2023-02-01T05:14:02;5.70;;;3.23;;
19812;SDS011;10066;48.108;11.448;2023-02-01T05:16:29;4.70;;;2.80;;
19812;SDS011;10066;48.108;11.448;2023-02-01T05:18:57;4.73;;;3.37;;
19812;SDS011;10066;48.108;11.448;2023-02-01T05:21:24;5.67;;;3.60;;
19812;SDS011;10066;48.108;11.448;2023-02-01T05:23:51;5.67;;;3.00;;
19812;SDS011;10066;48.108;11.448;2023-02-01T05:26:38;4.80;;;3.60;;
19812;SDS011;10066;48.108;11.448;2023-02-01T05:29:05;6.13;;;3.63;;
19812;SDS011;10066;48.108;11.448;2023-02-01T05:31:32;5.13;;;3.60;;
19812;SDS011;10066;48.108;11.448;2023-02-01T05:34:01;4.50;;;3.67;;
19812;SDS011;10066;48.108;11.448;2023-02-01T05:36:28;4.77;;;3.50;;
19812;SDS011;10066;48.108;11.448;2023-02-01T05:38:55;4.40;;;3.50;;
19812;SDS011;10066;48.108;11.448;2023-02-01T05:41:22;5.63;;;3.53;;
19812;SDS011;10066;48.108;11.448;2023-02-01T05:43:49;6.20;;;3.23;;
19812;SDS011;10066;48.108;11.448;2023-02-01T05:46:16;5.93;;;3.17;;
19812;SDS011;10066;48.108;11.448;2023-02-01T05:48:43;5.90;;;3.63;;
19812;SDS011;10066;48.108;11.448;2023-02-01T05:51:11;4.50;;;3.20;;
19812;SDS011;10066;48.108;11.448;2023-02-01T05:53:39;4.90;;;3.50;;
19812;SDS011;10066;48.108;11.448;2023-02-01T05:56:06;5.57;;;3.23;;
19812;SDS011;10066;48.108;11.448;2023-02-01T05:58:33;5.20;;;3.53;;
19812;SDS011;10066;48.108;11.448;2023-02-01T06:01:02;4.73;;;3.13;;
19812;SDS011;10066;48.108;11.448;2023-02-01T06:03:29;4.93;;;3.30;;
19812;SDS011;10066;48.108;11.448;2023-02-01T06:05:56;5.03;;;3.30;;
19812;SDS011;10066;48.108;11.448;2023-02-01T06:08:24;4.97;;;3.33;;
19812;SDS011;10066;48.108;11.448;2023-02-01T06:10:56;5.27;;;3.40;;
19812;SDS011;10066;48.108;11.448;2023-02-01T06:13:24;7.33;;;3.77;;
19812;SDS011;10066;48.108;11.448;2023-02-01T06:15:51;5.00;;;3.57;;
19812;SDS011;10066;48.108;11.448;2023-02-01T06:18:18;5.43;;;3.37;;
19812;SDS011;10066;48.108;11.448;2023-02-01T06:20:51;3.80;;;2.93;;
19812;SDS011;10066;48.108;11.448;2023-02-01T06:23:19;4.50;;;3.23;;
19812;SDS011;10066;48.108;11.448;2023-02-01T06:25:50;4.77;;;3.67;;
19812;SDS011;10066;48.108;11.448;2023-02-01T06:28:17;4.63;;;3.50;;
19812;SDS011;10066;48.108;11.448;2023-02-01T06:30:44;5.40;;;3.43;;
19812;SDS011;10066;48.108;11.448;2023-02-01T06:33:12;4.60;;;3.30;;
19812;SDS011;10066;48.108;11.448;2023-02-01T06:35:40;5.33;;;3.60;;
19812;SDS011;10066;48.108;11.448;2023-02-01T06:38:09;5.73;;;3.57;;
19812;SDS011;10066;48.108;11.448;2023-02-01T06:40:36;4.47;;;3.50;;
19812;SDS011;10066;48.108;11.448;2023-02-01T06:43:06;5.33;;;3.77;;
19812;SDS011;10066;48.108;11.448;2023-02-01T06:45:33;5.90;;;3.40;;
19812;SDS011;10066;48.108;11.448;2023-02-01T06:48:00;4.70;;;3.27;;
19812;SDS011;10066;48.108;11.448;2023-02-01T06:50:27;5.17;;;3.70;;
19812;SDS011;10066;48.108;11.448;2023-02-01T06:52:54;5.03;;;3.43;;
19812;SDS011;10066;48.108;11.448;2023-02-01T06:55:21;4.17;;;3.43;;
19812;SDS011;10066;48.108;11.448;2023-02-01T06:57:52;5.23;;;3.00;;
19812;SDS011;10066;48.108;11.448;2023-02-01T07:00:21;4.53;;;2.80;;
19812;SDS011;10066;48.108;11.448;2023-02-01T07:02:50;4.20;;;3.33;;
19812;SDS011;10066;48.108;11.448;2023-02-01T07:05:17;5.17;;;3.30;;
19812;SDS011;10066;48.108;11.448;2023-02-01T07:07:44;5.97;;;3.40;;
19812;SDS011;10066;48.108;11.448;2023-02-01T07:10:11;5.27;;;3.03;;
19812;SDS011;10066;48.108;11.448;2023-02-01T07:12:39;4.60;;;3.23;;
19812;SDS011;10066;48.108;11.448;2023-02-01T07:15:06;4.50;;;3.00;;
19812;SDS011;10066;48.108;11.448;2023-02-01T07:17:37;5.60;;;3.90;;
19812;SDS011;10066;48.108;11.448;2023-02-01T07:20:05;4.37;;;3.17;;
19812;SDS011;10066;48.108;11.448;2023-02-01T07:22:32;5.73;;;3.33;;
19812;SDS011;10066;48.108;11.448;2023-02-01T07:24:59;5.00;;;2.90;;
19812;SDS011;10066;48.108;11.448;2023-02-01T07:27:26;4.17;;;2.60;;
19812;SDS011;10066;48.108;11.448;2023-02-01T07:29:53;3.57;;;2.73;;
19812;SDS011;10066;48.108;11.448;2023-02-01T07:32:26;3.43;;;2.53;;
19812;SDS011;10066;48.108;11.448;2023-02-01T07:34:55;4.17;;;2.70;;
19812;SDS011;10066;48.108;11.448;2023-02-01T07:37:22;2.40;;;2.00;;
19812;SDS011;10066;48.108;11.448;2023-02-01T07:39:50;3.83;;;2.60;;
19812;SDS011;10066;48.108;11.448;2023-02-01T07:42:18;3.43;;;2.20;;
19812;SDS011;10066;48.108;11.448;2023-02-01T07:44:45;3.70;;;2.30;;
19812;SDS011;10066;48.108;11.448;2023-02-01T07:47:12;3.50;;;2.10;;
19812;SDS011;10066;48.108;11.448;2023-02-01T07:49:39;2.60;;;2.10;;
19812;SDS011;10066;48.108;11.448;2023-02-01T07:52:08;3.87;;;2.30;;
19812;SDS011;10066;48.108;11.448;2023-02-01T07:54:38;3.20;;;2.33;;
19812;SDS011;10066;48.108;11.448;2023-02-01T07:57:05;3.40;;;1.97;;
19812;SDS011;10066;48.108;11.448;2023-02-01T07:59:33;3.13;;;2.03;;
19812;SDS011;10066;48.108;11.448;2023-02-01T08:02:00;4.10;;;2.00;;
19812;SDS011;10066;48.108;11.448;2023-02-01T08:04:26;2.43;;;1.73;;
19812;SDS011;10066;48.108;11.448;2023-02-01T08:06:54;2.60;;;1.73;;
19812;SDS011;10066;48.108;11.448;2023-02-01T08:09:22;3.47;;;1.80;;
19812;SDS011;10066;48.108;11.448;2023-02-01T08:11:49;2.17;;;1.60;;
19812;SDS011;10066;48.108;11.448;2023-02-01T08:14:17;4.37;;;2.20;;
19812;SDS011;10066;48.108;11.448;2023-02-01T08:16:44;2.90;;;1.40;;
19812;SDS011;10066;48.108;11.448;2023-02-01T08:19:11;2.53;;;1.60;;
19812;SDS011;10066;48.108;11.448;2023-02-01T08:21:38;2.43;;;1.90;;
19812;SDS011;10066;48.108;11.448;2023-02-01T08:24:05;3.13;;;1.80;;
19812;SDS011;10066;48.108;11.448;2023-02-01T08:26:36;2.77;;;1.70;;
19812;SDS011;10066;48.108;11.448;2023-02-01T08:29:03;1.50;;;1.40;;
19812;SDS011;10066;48.108;11.448;2023-02-01T08:31:32;3.00;;;1.87;;
19812;SDS011;10066;48.108;11.448;2023-02-01T08:34:00;2.33;;;1.50;;
19812;SDS011;10066;48.108;11.448;2023-02-01T08:36:30;2.23;;;1.50;;
19812;SDS011;10066;48.108;11.448;2023-02-01T08:38:57;2.27;;;1.53;;
19812;SDS011;10066;48.108;11.448;2023-02-01T08:41:25;2.00;;;1.57;;
19812;SDS011;10066;48.108;11.448;2023-02-01T08:43:55;2.90;;;1.37;;
19812;SDS011;10066;48.108;11.448;2023-02-01T08:46:23;3.80;;;1.50;;
19812;SDS011;10066;48.108;11.448;2023-02-01T08:48:50;3.53;;;1.70;;
19812;SDS011;10066;48.108;11.448;2023-02-01T08:51:18;4.20;;;1.90;;
19812;SDS011;10066;48.108;11.448;2023-02-01T08:53:46;3.53;;;1.77;;
19812;SDS011;10066;48.108;11.448;2023-02-01T08:56:15;4.70;;;1.50;;
19812;SDS011;10066;48.108;11.448;2023-02-01T08:58:43;3.20;;;2.10;;
19812;SDS011;10066;48.108;11.448;2023-02-01T09:01:12;5.07;;;1.70;;
19812;SDS011;10066;48.108;11.448;2023-02-01T09:03:40;2.73;;;1.60;;
19812;SDS011;10066;48.108;11.448;2023-02-01T09:06:09;2.50;;;1.77;;
19812;SDS011;10066;48.108;11.448;2023-02-01T09:08:37;2.00;;;1.60;;
19812;SDS011;10066;48.108;11.448;2023-02-01T09:11:04;9.20;;;2.17;;
19812;SDS011;10066;48.108;11.448;2023-02-01T09:13:33;2.73;;;1.73;;
19812;SDS011;10066;48.108;11.448;2023-02-01T09:16:00;2.73;;;1.50;;
19812;SDS011;10066;48.108;11.448;2023-02-01T09:18:29;5.03;;;1.73;;
19812;SDS011;10066;48.108;11.448;2023-02-01T09:20:56;2.13;;;1.70;;
19812;SDS011;10066;48.108;11.448;2023-02-01T09:23:23;4.27;;;1.87;;
19812;SDS011;10066;48.108;11.448;2023-02-01T09:25:50;5.90;;;2.20;;
19812;SDS011;10066;48.108;11.448;2023-02-01T09:28:17;3.13;;;1.80;;
19812;SDS011;10066;48.108;11.448;2023-02-01T09:30:44;5.57;;;1.80;;
19812;SDS011;10066;48.108;11.448;2023-02-01T09:33:11;5.67;;;2.00;;
19812;SDS011;10066;48.108;11.448;2023-02-01T09:35:39;3.77;;;1.70;;
19812;SDS011;10066;48.108;11.448;2023-02-01T09:38:07;4.83;;;1.83;;
19812;SDS011;10066;48.108;11.448;2023-02-01T09:40:34;3.03;;;1.60;;
19812;SDS011;10066;48.108;11.448;2023-02-01T09:43:10;4.00;;;1.80;;
19812;SDS011;10066;48.108;11.448;2023-02-01T09:45:48;3.03;;;1.73;;
19812;SDS011;10066;48.108;11.448;2023-02-01T09:48:22;4.70;;;2.10;;
19812;SDS011;10066;48.108;11.448;2023-02-01T09:50:56;3.70;;;1.60;;
19812;SDS011;10066;48.108;11.448;2023-02-01T09:53:25;1.57;;;1.40;;
19812;SDS011;10066;48.108;11.448;2023-02-01T09:55:59;2.70;;;1.50;;
19812;SDS011;10066;48.108;11.448;2023-02-01T09:58:32;4.43;;;1.80;;
19812;SDS011;10066;48.108;11.448;2023-02-01T10:01:03;2.07;;;1.50;;
19812;SDS011;10066;48.108;11.448;2023-02-01T10:03:42;4.10;;;1.57;;
19812;SDS011;10066;48.108;11.448;2023-02-01T10:06:16;2.37;;;1.53;;
19812;SDS011;10066;48.108;11.448;2023-02-01T10:09:09;5.27;;;1.60;;
19812;SDS011;10066;48.108;11.448;2023-02-01T10:11:50;3.90;;;1.73;;
19812;SDS011;10066;48.108;11.448;2023-02-01T10:14:37;4.43;;;1.90;;
19812;SDS011;10066;48.108;11.448;2023-02-01T10:17:16;2.30;;;1.40;;
19812;SDS011;10066;48.108;11.448;2023-02-01T10:19:54;2.50;;;1.87;;
19812;SDS011;10066;48.108;11.448;2023-02-01T10:22:31;2.57;;;1.60;;
19812;SDS011;10066;48.108;11.448;2023-02-01T10:25:07;6.23;;;1.77;;
19812;SDS011;10066;48.108;11.448;2023-02-01T10:27:44;2.37;;;1.90;;
19812;SDS011;10066;48.108;11.448;2023-02-01T10:30:17;2.83;;;1.30;;
19812;SDS011;10066;48.108;11.448;2023-02-01T10:32:47;5.97;;;2.20;;
19812;SDS011;10066;48.108;11.448;2023-02-01T10:35:21;1.73;;;1.30;;
19812;SDS011;10066;48.108;11.448;2023-02-01T10:37:54;6.60;;;2.17;;
19812;SDS011;10066;48.108;11.448;2023-02-01T10:40:26;5.57;;;1.60;;
19812;SDS011;10066;48.108;11.448;2023-02-01T10:42:54;2.80;;;1.80;;
19812;SDS011;10066;48.108;11.448;2023-02-01T10:45:24;2.30;;;1.63;;
19812;SDS011;10066;48.108;11.448;2023-02-01T10:47:54;2.70;;;1.87;;
19812;SDS011;10066;48.108;11.448;2023-02-01T10:50:25;3.03;;;1.50;;
19812;SDS011;10066;48.108;11.448;2023-02-01T10:53:03;2.67;;;1.57;;
19812;SDS011;10066;48.108;11.448;2023-02-01T10:55:37;2.00;;;1.43;;
19812;SDS011;10066;48.108;11.448;2023-02-01T10:58:06;4.53;;;1.90;;
19812;SDS011;10066;48.108;11.448;2023-02-01T11:00:44;2.80;;;1.83;;
19812;SDS011;10066;48.108;11.448;2023-02-01T11:03:20;3.33;;;1.80;;
19812;SDS011;10066;48.108;11.448;2023-02-01T11:05:58;4.03;;;1.50;;
19812;SDS011;10066;48.108;11.448;2023-02-01T11:08:27;3.33;;;2.10;;
19812;SDS011;10066;48.108;11.448;2023-02-01T11:10:57;2.30;;;1.60;;
19812;SDS011;10066;48.108;11.448;2023-02-01T11:13:27;2.50;;;1.43;;
19812;SDS011;10066;48.108;11.448;2023-02-01T11:15:57;2.67;;;1.70;;
19812;SDS011;10066;48.108;11.448;2023-02-01T11:18:26;4.17;;;2.37;;
19812;SDS011;10066;48.108;11.448;2023-02-01T11:20:55;2.27;;;1.43;;
19812;SDS011;10066;48.108;11.448;2023-02-01T11:23:24;4.77;;;2.00;;
19812;SDS011;10066;48.108;11.448;2023-02-01T11:25:55;5.50;;;2.10;;
19812;SDS011;10066;48.108;11.448;2023-02-01T11:28:24;4.87;;;2.10;;
19812;SDS011;10066;48.108;11.448;2023-02-01T11:30:53;3.03;;;1.83;;
19812;SDS011;10066;48.108;11.448;2023-02-01T11:33:23;2.70;;;1.77;;
19812;SDS011;10066;48.108;11.448;2023-02-01T11:35:54;6.00;;;1.80;;
19812;SDS011;10066;48.108;11.448;2023-02-01T11:38:25;2.50;;;1.77;;
19812;SDS011;10066;48.108;11.448;2023-02-01T11:40:58;5.00;;;1.70;;
19812;SDS011;10066;48.108;11.448;2023-02-01T11:43:38;3.53;;;2.10;;
19812;SDS011;10066;48.108;11.448;2023-02-01T11:46:17;3.63;;;1.77;;
19812;SDS011;10066;48.108;11.448;2023-02-01T11:48:50;4.20;;;2.03;;
19812;SDS011;10066;48.108;11.448;2023-02-01T11:51:21;4.43;;;2.00;;
19812;SDS011;10066;48.108;11.448;2023-02-01T11:54:05;3.93;;;1.93;;
19812;SDS011;10066;48.108;11.448;2023-02-01T11:56:46;5.17;;;2.93;;
19812;SDS011;10066;48.108;11.448;2023-02-01T11:59:26;7.03;;;2.30;;
19812;SDS011;10066;48.108;11.448;2023-02-01T12:02:13;5.10;;;2.67;;
19812;SDS011;10066;48.108;11.448;2023-02-01T12:05:04;3.87;;;2.27;;
19812;SDS011;10066;48.108;11.448;2023-02-01T12:07:51;2.97;;;1.80;;
19812;SDS011;10066;48.108;11.448;2023-02-01T12:10:44;2.50;;;1.37;;
19812;SDS011;10066;48.108;11.448;2023-02-01T12:13:23;4.07;;;1.93;;
19812;SDS011;10066;48.108;11.448;2023-02-01T12:16:02;4.13;;;2.67;;
19812;SDS011;10066;48.108;11.448;2023-02-01T12:18:45;4.17;;;2.23;;
19812;SDS011;10066;48.108;11.448;2023-02-01T12:21:33;2.67;;;1.80;;
19812;SDS011;10066;48.108;11.448;2023-02-01T12:24:32;3.57;;;2.03;;
19812;SDS011;10066;48.108;11.448;2023-02-01T12:27:16;3.93;;;1.83;;
19812;SDS011;10066;48.108;11.448;2023-02-01T12:33:05;6.53;;;2.30;;
19812;SDS011;10066;48.108;11.448;2023-02-01T12:35:49;6.70;;;2.40;;
19812;SDS011;10066;48.108;11.448;2023-02-01T12:38:29;7.30;;;2.00;;
19812;SDS011;10066;48.108;11.448;2023-02-01T12:41:15;4.10;;;2.03;;
19812;SDS011;10066;48.108;11.448;2023-02-01T12:44:00;4.83;;;1.67;;
19812;SDS011;10066;48.108;11.448;2023-02-01T12:46:32;5.50;;;1.80;;
19812;SDS011;10066;48.108;11.448;2023-02-01T12:49:05;6.43;;;2.07;;
19812;SDS011;10066;48.108;11.448;2023-02-01T12:51:38;6.70;;;2.10;;
19812;SDS011;10066;48.108;11.448;2023-02-01T12:54:11;5.40;;;1.90;;
19812;SDS011;10066;48.108;11.448;2023-02-01T12:56:43;6.00;;;2.17;;
19812;SDS011;10066;48.108;11.448;2023-02-01T12:59:16;3.70;;;1.73;;
19812;SDS011;10066;48.108;11.448;2023-02-01T13:01:49;5.17;;;1.87;;
19812;SDS011;10066;48.108;11.448;2023-02-01T13:04:28;4.07;;;1.70;;
19812;SDS011;10066;48.108;11.448;2023-02-01T13:07:01;2.67;;;1.50;;
19812;SDS011;10066;48.108;11.448;2023-02-01T13:09:36;4.50;;;1.90;;
19812;SDS011;10066;48.108;11.448;2023-02-01T13:12:10;5.67;;;1.80;;
19812;SDS011;10066;48.108;11.448;2023-02-01T13:14:40;6.57;;;2.17;;
19812;SDS011;10066;48.108;11.448;2023-02-01T13:17:12;3.67;;;1.87;;
19812;SDS011;10066;48.108;11.448;2023-02-01T13:19:44;3.13;;;1.80;;
19812;SDS011;10066;48.108;11.448;2023-02-01T13:22:16;3.63;;;1.90;;
19812;SDS011;10066;48.108;11.448;2023-02-01T13:24:46;6.77;;;2.00;;
19812;SDS011;10066;48.108;11.448;2023-02-01T13:27:16;5.17;;;2.17;;
19812;SDS011;10066;48.108;11.448;2023-02-01T13:29:45;5.03;;;2.17;;
19812;SDS011;10066;48.108;11.448;2023-02-01T13:32:21;1.50;;;1.10;;
19812;SDS011;10066;48.108;11.448;2023-02-01T13:38:32;3.30;;;2.17;;
19812;SDS011;10066;48.108;11.448;2023-02-01T13:41:23;4.77;;;1.93;;
19812;SDS011;10066;48.108;11.448;2023-02-01T13:43:54;5.20;;;2.00;;
19812;SDS011;10066;48.108;11.448;2023-02-01T13:46:24;3.83;;;2.10;;
19812;SDS011;10066;48.108;11.448;2023-02-01T13:48:54;3.27;;;1.90;;
19812;SDS011;10066;48.108;11.448;2023-02-01T13:51:33;3.67;;;2.03;;
19812;SDS011;10066;48.108;11.448;2023-02-01T13:54:04;4.63;;;2.00;;
19812;SDS011;10066;48.108;11.448;2023-02-01T13:56:39;3.53;;;1.73;;
19812;SDS011;10066;48.108;11.448;2023-02-01T14:08:21;2.47;;;1.90;;
19812;SDS011;10066;48.108;11.448;2023-02-01T14:10:52;3.60;;;2.07;;
19812;SDS011;10066;48.108;11.448;2023-02-01T14:13:23;4.13;;;2.33;;
19812;SDS011;10066;48.108;11.448;2023-02-01T14:18:49;2.20;;;1.50;;
19812;SDS011;10066;48.108;11.448;2023-02-01T14:21:25;2.07;;;1.27;;
19812;SDS011;10066;48.108;11.448;2023-02-01T14:23:58;3.17;;;1.93;;
19812;SDS011;10066;48.108;11.448;2023-02-01T14:26:41;2.87;;;1.80;;
19812;SDS011;10066;48.108;11.448;2023-02-01T14:29:21;3.93;;;2.00;;
19812;SDS011;10066;48.108;11.448;2023-02-01T14:31:58;3.30;;;1.60;;
19812;SDS011;10066;48.108;11.448;2023-02-01T14:34:31;6.73;;;1.90;;
19812;SDS011;10066;48.108;11.448;2023-02-01T14:37:08;1.83;;;1.60;;
19812;SDS011;10066;48.108;11.448;2023-02-01T14:39:48;2.73;;;1.73;;
19812;SDS011;10066;48.108;11.448;2023-02-01T14:42:24;4.67;;;1.37;;
19812;SDS011;10066;48.108;11.448;2023-02-01T14:44:53;2.03;;;1.30;;
19812;SDS011;10066;48.108;11.448;2023-02-01T14:47:31;2.77;;;1.77;;
19812;SDS011;10066;48.108;11.448;2023-02-01T14:50:03;2.33;;;1.30;;
19812;SDS011;10066;48.108;11.448;2023-02-01T14:52:49;6.77;;;1.70;;
19812;SDS011;10066;48.108;11.448;2023-02-01T14:55:33;3.17;;;1.60;;
19812;SDS011;10066;48.108;11.448;2023-02-01T14:58:06;1.87;;;1.27;;
19812;SDS011;10066;48.108;11.448;2023-02-01T15:00:46;5.87;;;1.40;;
19812;SDS011;10066;48.108;11.448;2023-02-01T15:03:19;5.30;;;1.60;;
19812;SDS011;10066;48.108;11.448;2023-02-01T15:05:55;4.07;;;1.20;;
19812;SDS011;10066;48.108;11.448;2023-02-01T15:08:24;3.77;;;1.60;;
19812;SDS011;10066;48.108;11.448;2023-02-01T15:10:54;3.53;;;1.90;;
19812;SDS011;10066;48.108;11.448;2023-02-01T15:13:26;4.57;;;1.63;;
19812;SDS011;10066;48.108;11.448;2023-02-01T15:16:00;3.83;;;1.60;;
19812;SDS011;10066;48.108;11.448;2023-02-01T15:18:35;3.27;;;1.37;;
19812;SDS011;10066;48.108;11.448;2023-02-01T15:21:03;3.80;;;1.73;;
19812;SDS011;10066;48.108;11.448;2023-02-01T15:23:34;3.37;;;1.63;;